createdAt,value
2022-09-11T00:01:35.334Z,34.92
2022-09-11T00:04:06.245Z,32.90
2022-09-11T00:06:33.556Z,36.40
2022-09-11T00:09:03.957Z,41.50
2022-09-11T00:11:42.922Z,35.40
2022-09-11T00:14:13.964Z,40.72
2022-09-11T00:16:44.996Z,41.45
2022-09-11T00:19:18.766Z,36.38
2022-09-11T00:21:47.043Z,38.03
2022-09-11T00:24:14.292Z,40.28
2022-09-11T00:26:42.367Z,37.85
2022-09-11T00:29:10.818Z,35.97
2022-09-11T00:31:40.382Z,40.72
2022-09-11T00:34:07.658Z,39.08
2022-09-11T00:36:41.092Z,39.70
2022-09-11T00:39:09.609Z,43.95
2022-09-11T00:41:41.990Z,38.08
2022-09-11T00:44:29.221Z,41.63
2022-09-11T00:47:05.477Z,39.28
2022-09-11T00:49:41.573Z,43.25
2022-09-11T00:52:30.981Z,41.47
2022-09-11T00:55:07.480Z,42.25
2022-09-11T00:57:42.316Z,40.92
2022-09-11T01:00:10.517Z,39.90
2022-09-11T01:02:39.995Z,41.88
2022-09-11T01:05:07.803Z,47.47
2022-09-11T01:07:36.877Z,43.03
2022-09-11T01:10:06.516Z,45.58
2022-09-11T01:13:01.086Z,53.67
2022-09-11T01:15:42.035Z,44.47
2022-09-11T01:18:26.918Z,49.63
2022-09-11T01:21:09.150Z,48.75
2022-09-11T01:23:57.955Z,48.95
2022-09-11T01:26:47.653Z,48.40
2022-09-11T01:29:47.854Z,48.70
2022-09-11T01:32:21.737Z,45.55
2022-09-11T01:34:59.349Z,54.17
2022-09-11T01:37:46.689Z,56.33
2022-09-11T01:40:22.209Z,51.60
2022-09-11T01:42:52.943Z,51.50
2022-09-11T01:45:23.076Z,58.65
2022-09-11T01:47:54.396Z,53.22
2022-09-11T01:50:25.014Z,59.08
2022-09-11T01:53:01.928Z,51.33
2022-09-11T01:55:40.167Z,57.38
2022-09-11T01:58:31.645Z,53.50
2022-09-11T02:01:07.957Z,56.67
2022-09-11T02:03:41.495Z,55.78
2022-09-11T02:06:15.898Z,61.10
2022-09-11T02:08:49.420Z,51.72
2022-09-11T02:11:21.123Z,55.28
2022-09-11T02:13:58.788Z,59.28
2022-09-11T02:16:50.469Z,56.67
2022-09-11T02:19:25.983Z,56.55
2022-09-11T02:21:53.482Z,55.47
2022-09-11T02:24:22.726Z,56.80
2022-09-11T02:27:03.085Z,58.28
2022-09-11T02:29:33.125Z,60.50
2022-09-11T02:32:01.308Z,62.17
2022-09-11T02:34:34.060Z,72.30
2022-09-11T02:37:40.994Z,61.13
2022-09-11T02:40:19.433Z,71.57
2022-09-11T02:43:20.690Z,92.22
2022-09-11T02:45:54.305Z,98.22
2022-09-11T02:48:56.076Z,87.65
2022-09-11T02:51:56.354Z,110.03
2022-09-11T02:54:38.934Z,92.97
2022-09-11T02:57:09.632Z,136.73
2022-09-11T02:59:44.882Z,75.38
2022-09-11T03:02:16.473Z,74.68
2022-09-11T03:04:44.158Z,94.38
2022-09-11T03:07:11.655Z,97.88
2022-09-11T03:09:38.945Z,78.28
2022-09-11T03:12:13.252Z,71.95
2022-09-11T03:14:40.864Z,86.53
2022-09-11T03:17:08.119Z,77.80
2022-09-11T03:19:36.641Z,73.43
2022-09-11T03:22:04.010Z,80.45
2022-09-11T03:24:31.311Z,76.32
2022-09-11T03:27:00.095Z,108.13
2022-09-11T03:29:28.535Z,88.03
2022-09-11T03:31:58.837Z,87.82
2022-09-11T03:34:26.450Z,82.40
2022-09-11T03:36:53.731Z,106.97
2022-09-11T03:39:21.014Z,115.88
2022-09-11T03:41:48.288Z,85.03
2022-09-11T03:44:15.595Z,103.80
2022-09-11T03:46:42.923Z,87.40
2022-09-11T03:49:10.208Z,103.53
2022-09-11T03:51:37.881Z,82.05
2022-09-11T03:54:05.225Z,126.32
2022-09-11T03:56:36.583Z,76.93
2022-09-11T03:59:03.963Z,102.40
2022-09-11T04:01:35.918Z,78.75
2022-09-11T04:04:04.708Z,81.07
2022-09-11T04:06:36.820Z,92.85
2022-09-11T04:09:05.361Z,76.18
2022-09-11T04:11:38.837Z,85.55
2022-09-11T04:14:10.942Z,77.45
2022-09-11T04:16:39.570Z,83.03
2022-09-11T04:19:06.898Z,79.93
2022-09-11T04:21:34.722Z,103.07
2022-09-11T04:24:02.274Z,140.52
2022-09-11T04:26:32.461Z,104.93
2022-09-11T04:29:33.091Z,121.25
2022-09-11T04:32:03.630Z,170.77
2022-09-11T04:34:34.718Z,131.32
2022-09-11T04:37:03.689Z,144.38
2022-09-11T04:39:33.496Z,196.60
2022-09-11T04:42:03.231Z,130.43
2022-09-11T04:44:32.581Z,175.20
2022-09-11T04:47:03.141Z,174.75
2022-09-11T04:49:30.549Z,121.47
2022-09-11T04:52:02.842Z,139.80
2022-09-11T04:54:30.448Z,191.88
2022-09-11T04:56:57.949Z,164.25
2022-09-11T04:59:25.477Z,219.77
2022-09-11T05:02:04.381Z,214.48
2022-09-11T05:04:32.118Z,256.55
2022-09-11T05:07:01.851Z,116.68
2022-09-11T05:09:32.330Z,208.35
2022-09-11T05:11:59.680Z,174.02
2022-09-11T05:14:32.715Z,191.60
2022-09-11T05:17:02.186Z,105.32
2022-09-11T05:19:30.950Z,86.10
2022-09-11T05:21:58.250Z,103.18
2022-09-11T05:24:26.074Z,112.55
2022-09-11T05:26:55.723Z,181.45
2022-09-11T05:29:30.383Z,190.50
2022-09-11T05:32:03.561Z,218.75
2022-09-11T05:34:31.794Z,210.88
2022-09-11T05:37:02.141Z,116.00
2022-09-11T05:39:31.754Z,118.53
2022-09-11T05:42:01.408Z,200.25
2022-09-11T05:44:36.923Z,90.65
2022-09-11T05:47:04.738Z,116.57
2022-09-11T05:49:32.609Z,110.60
2022-09-11T05:52:01.554Z,133.95
2022-09-11T05:54:35.645Z,235.73
2022-09-11T05:57:07.607Z,101.43
2022-09-11T05:59:37.345Z,120.20
2022-09-11T06:02:04.724Z,278.27
2022-09-11T06:04:40.680Z,216.73
2022-09-11T06:07:08.999Z,98.25
2022-09-11T06:09:36.955Z,243.73
2022-09-11T06:12:04.773Z,341.60
2022-09-11T06:14:32.465Z,360.15
2022-09-11T06:17:00.442Z,138.10
2022-09-11T06:19:30.738Z,169.20
2022-09-11T06:21:58.069Z,139.60
2022-09-11T06:24:30.164Z,82.85
2022-09-11T06:26:57.798Z,161.00
2022-09-11T06:29:27.251Z,277.58
2022-09-11T06:31:55.015Z,208.73
2022-09-11T06:34:26.617Z,158.25
2022-09-11T06:36:55.759Z,208.07
2022-09-11T06:39:23.397Z,247.43
2022-09-11T06:41:53.218Z,129.32
2022-09-11T06:44:27.440Z,112.63
2022-09-11T06:46:57.487Z,141.07
2022-09-11T06:49:25.766Z,164.63
2022-09-11T06:52:11.534Z,118.00
2022-09-11T06:54:41.557Z,103.72
2022-09-11T06:57:14.157Z,92.07
2022-09-11T06:59:43.072Z,141.68
2022-09-11T07:02:10.517Z,81.15
2022-09-11T07:04:38.487Z,103.03
2022-09-11T07:07:05.929Z,213.50
2022-09-11T07:09:34.998Z,62.47
2022-09-11T07:12:02.682Z,64.80
2022-09-11T07:14:31.183Z,89.63
2022-09-11T07:17:07.738Z,55.50
2022-09-11T07:19:35.656Z,70.53
2022-09-11T07:22:03.411Z,79.82
2022-09-11T07:24:33.166Z,45.15
2022-09-11T07:27:00.795Z,80.07
2022-09-11T07:29:32.684Z,71.00
2022-09-11T07:32:02.024Z,62.53
2022-09-11T07:34:29.508Z,59.45
2022-09-11T07:37:01.256Z,55.83
2022-09-11T07:39:28.910Z,47.20
2022-09-11T07:42:01.374Z,48.22
2022-09-11T07:44:34.775Z,46.50
2022-09-11T07:47:02.699Z,55.45
2022-09-11T07:49:33.213Z,47.15
2022-09-11T07:52:03.441Z,70.15
2022-09-11T07:54:42.771Z,54.10
2022-09-11T07:57:11.609Z,56.35
2022-09-11T07:59:39.277Z,48.80
2022-09-11T08:02:11.659Z,50.25
2022-09-11T08:04:39.235Z,77.30
2022-09-11T08:07:06.746Z,42.42
2022-09-11T08:09:35.307Z,47.33
2022-09-11T08:12:04.737Z,41.80
2022-09-11T08:14:39.177Z,61.13
2022-09-11T08:17:11.853Z,47.50
2022-09-11T08:19:40.660Z,40.60
2022-09-11T08:22:08.660Z,46.70
2022-09-11T08:24:42.122Z,37.60
2022-09-11T08:27:11.830Z,41.92
2022-09-11T08:29:41.944Z,41.90
2022-09-11T08:32:10.231Z,37.42
2022-09-11T08:34:38.469Z,35.67
2022-09-11T08:37:06.057Z,37.80
2022-09-11T08:39:35.355Z,34.03
2022-09-11T08:42:24.459Z,42.25
2022-09-11T08:44:55.745Z,36.75
2022-09-11T08:47:38.336Z,35.17
2022-09-11T08:50:27.574Z,35.95
2022-09-11T08:52:56.603Z,32.53
2022-09-11T08:55:48.720Z,36.97
2022-09-11T08:58:32.880Z,32.50
2022-09-11T09:01:23.323Z,34.97
2022-09-11T09:04:26.859Z,37.20
2022-09-11T09:07:00.802Z,35.28
2022-09-11T09:09:37.017Z,36.13
2022-09-11T09:12:08.349Z,40.08
2022-09-11T09:15:17.210Z,37.05
2022-09-11T09:18:04.833Z,35.97
2022-09-11T09:20:45.128Z,35.75
2022-09-11T09:23:24.569Z,34.35
2022-09-11T09:25:54.307Z,31.67
2022-09-11T09:28:34.944Z,33.33
2022-09-11T09:31:08.355Z,32.28
2022-09-11T09:33:42.436Z,31.10
2022-09-11T09:36:24.894Z,32.00
2022-09-11T09:38:53.833Z,31.67
2022-09-11T09:41:24.446Z,32.33
2022-09-11T09:44:08.102Z,31.30
2022-09-11T09:46:50.205Z,33.53
2022-09-11T09:49:41.222Z,32.03
2022-09-11T09:52:16.769Z,32.38
2022-09-11T09:55:00.339Z,32.83
2022-09-11T09:57:34.454Z,31.90
2022-09-11T10:00:09.922Z,31.25
2022-09-11T10:02:55.036Z,31.15
2022-09-11T10:05:41.504Z,30.50
2022-09-11T10:08:27.354Z,32.42
2022-09-11T10:11:00.090Z,31.70
2022-09-11T10:13:33.028Z,32.13
2022-09-11T10:16:03.710Z,32.15
2022-09-11T10:18:42.661Z,30.77
2022-09-11T10:21:14.642Z,30.30
2022-09-11T10:23:47.917Z,29.85
2022-09-11T10:26:18.476Z,28.77
2022-09-11T10:28:46.939Z,25.42
2022-09-11T10:31:16.617Z,27.35
2022-09-11T10:33:57.910Z,25.13
2022-09-11T10:36:28.714Z,24.67
2022-09-11T10:39:02.390Z,22.95
2022-09-11T10:41:34.773Z,25.55
2022-09-11T10:44:11.054Z,22.15
2022-09-11T10:46:41.095Z,23.27
2022-09-11T10:49:11.434Z,23.55
2022-09-11T10:51:45.413Z,22.45
2022-09-11T10:54:36.330Z,23.60
2022-09-11T10:57:16.108Z,21.55
2022-09-11T11:00:10.696Z,21.13
2022-09-11T11:02:52.662Z,22.58
2022-09-11T11:05:27.122Z,22.83
2022-09-11T11:08:13.126Z,21.77
2022-09-11T11:11:18.600Z,21.42
2022-09-11T11:14:07.207Z,21.90
2022-09-11T11:16:40.390Z,22.02
2022-09-11T11:19:22.046Z,22.75
2022-09-11T11:22:06.352Z,20.75
2022-09-11T11:25:02.851Z,22.65
2022-09-11T11:27:46.069Z,20.65
2022-09-11T11:30:17.280Z,22.83
2022-09-11T11:33:09.283Z,21.67
2022-09-11T11:35:45.741Z,22.70
2022-09-11T11:38:22.288Z,21.65
2022-09-11T11:41:08.912Z,21.70
2022-09-11T11:43:40.674Z,22.73
2022-09-11T11:46:40.490Z,21.20
2022-09-11T11:49:31.390Z,20.13
2022-09-11T11:52:05.716Z,19.48
2022-09-11T11:54:45.380Z,21.70
2022-09-11T11:57:20.136Z,21.60
2022-09-11T12:00:10.743Z,20.95
2022-09-11T12:03:04.538Z,25.90
2022-09-11T12:05:34.081Z,19.65
2022-09-11T12:08:01.955Z,20.73
2022-09-11T12:10:39.258Z,19.40
2022-09-11T12:13:12.518Z,20.10
2022-09-11T12:15:39.973Z,19.80
2022-09-11T12:18:24.865Z,18.75
2022-09-11T12:20:52.921Z,18.63
2022-09-11T12:23:55.046Z,17.45
2022-09-11T12:26:23.936Z,18.65
2022-09-11T12:29:11.777Z,17.90
2022-09-11T12:31:51.523Z,16.80
2022-09-11T12:34:23.904Z,19.00
2022-09-11T12:37:07.300Z,18.55
2022-09-11T12:39:49.684Z,17.08
2022-09-11T12:42:23.063Z,17.25
2022-09-11T12:44:50.343Z,15.88
2022-09-11T12:47:33.537Z,16.33
2022-09-11T12:50:19.081Z,16.80
2022-09-11T12:52:49.121Z,16.40
2022-09-11T12:55:33.675Z,14.77
2022-09-11T12:58:05.061Z,15.50
2022-09-11T13:00:43.622Z,13.38
2022-09-11T13:03:27.810Z,14.63
2022-09-11T13:06:16.130Z,13.93
2022-09-11T13:09:28.109Z,13.75
2022-09-11T13:11:58.035Z,10.80
2022-09-11T13:14:34.716Z,10.65
2022-09-11T13:17:04.879Z,10.05
2022-09-11T13:19:37.344Z,10.60
2022-09-11T13:22:31.263Z,11.05
2022-09-11T13:25:21.727Z,9.60
2022-09-11T13:27:54.715Z,9.75
2022-09-11T13:30:24.599Z,9.18
2022-09-11T13:33:08.177Z,10.80
2022-09-11T13:35:40.295Z,8.82
2022-09-11T13:38:32.990Z,10.88
2022-09-11T13:41:06.931Z,11.13
2022-09-11T13:43:48.647Z,9.55
2022-09-11T13:46:15.949Z,8.73
2022-09-11T13:48:44.853Z,8.13
2022-09-11T13:51:25.790Z,8.10
2022-09-11T13:54:18.561Z,9.43
2022-09-11T13:56:56.269Z,6.72
2022-09-11T13:59:44.947Z,8.48
2022-09-11T14:02:34.727Z,9.10
2022-09-11T14:05:12.437Z,9.55
2022-09-11T14:08:07.832Z,9.90
2022-09-11T14:13:23.108Z,7.82
2022-09-11T14:16:11.577Z,9.05
2022-09-11T14:18:49.330Z,7.88
2022-09-11T14:21:20.611Z,8.90
2022-09-11T14:23:53.291Z,7.57
2022-09-11T14:26:39.091Z,8.00
2022-09-11T14:29:30.729Z,7.28
2022-09-11T14:32:24.171Z,8.20
2022-09-11T14:34:51.469Z,8.18
2022-09-11T14:37:19.137Z,7.05
2022-09-11T14:39:50.179Z,7.97
2022-09-11T14:42:21.495Z,7.28
2022-09-11T14:44:49.210Z,9.68
2022-09-11T14:47:18.955Z,7.90
2022-09-11T14:49:47.336Z,7.57
2022-09-11T14:52:20.257Z,7.78
2022-09-11T14:54:48.049Z,8.40
2022-09-11T14:57:20.856Z,8.25
2022-09-11T14:59:48.948Z,6.82
2022-09-11T15:02:23.491Z,8.00
2022-09-11T15:04:53.353Z,7.80
2022-09-11T15:07:24.480Z,7.05
2022-09-11T15:09:53.245Z,6.68
2022-09-11T15:12:21.276Z,6.88
2022-09-11T15:14:59.556Z,6.32
2022-09-11T15:17:31.142Z,6.70
2022-09-11T15:20:00.171Z,6.13
2022-09-11T15:22:27.865Z,5.30
2022-09-11T15:24:56.440Z,5.72
2022-09-11T15:27:25.117Z,6.35
2022-09-11T15:29:53.199Z,5.93
2022-09-11T15:32:23.633Z,6.40
2022-09-11T15:34:51.649Z,5.97
2022-09-11T15:37:18.925Z,6.57
2022-09-11T15:39:46.196Z,7.05
2022-09-11T15:42:13.519Z,5.57
2022-09-11T15:44:40.853Z,6.00
2022-09-11T15:47:08.860Z,4.82
2022-09-11T15:49:40.841Z,5.28
2022-09-11T15:52:10.221Z,4.55
2022-09-11T15:54:37.790Z,6.97
2022-09-11T15:57:05.139Z,5.80
2022-09-11T15:59:32.663Z,5.85
2022-09-11T16:02:00.226Z,4.80
2022-09-11T16:04:32.729Z,5.20
2022-09-11T16:07:00.134Z,6.32
2022-09-11T16:09:30.050Z,6.53
2022-09-11T16:11:57.694Z,5.78
2022-09-11T16:14:27.911Z,5.80
2022-09-11T16:16:57.069Z,6.15
2022-09-11T16:19:28.803Z,6.00
2022-09-11T16:21:58.492Z,4.93
2022-09-11T16:24:27.658Z,5.32
2022-09-11T16:26:55.831Z,7.03
2022-09-11T16:29:42.920Z,6.13
2022-09-11T16:32:28.345Z,5.18
2022-09-11T16:34:57.600Z,5.53
2022-09-11T16:37:26.268Z,6.03
2022-09-11T16:39:53.726Z,5.53
2022-09-11T16:42:22.034Z,6.15
2022-09-11T16:44:49.712Z,6.32
2022-09-11T16:47:17.666Z,5.60
2022-09-11T16:50:05.891Z,7.30
2022-09-11T16:52:34.507Z,4.63
2022-09-11T16:55:02.128Z,5.95
2022-09-11T16:57:30.229Z,4.45
2022-09-11T16:59:57.755Z,5.60
2022-09-11T17:02:26.473Z,6.65
2022-09-11T17:04:53.746Z,5.53
2022-09-11T17:07:21.083Z,5.57
2022-09-11T17:09:48.387Z,8.98
2022-09-11T17:12:20.749Z,6.05
2022-09-11T17:14:48.035Z,6.25
2022-09-11T17:17:15.290Z,7.82
2022-09-11T17:19:42.555Z,5.45
2022-09-11T17:22:10.268Z,5.80
2022-09-11T17:24:38.712Z,6.30
2022-09-11T17:27:06.065Z,6.07
2022-09-11T17:29:33.312Z,5.60
2022-09-11T17:32:26.067Z,5.63
2022-09-11T17:34:48.029Z,5.65
2022-09-11T17:37:17.141Z,5.75
2022-09-11T17:39:44.863Z,7.95
2022-09-11T17:42:13.492Z,5.78
2022-09-11T17:44:41.436Z,5.22
2022-09-11T17:47:09.030Z,4.80
2022-09-11T17:49:36.476Z,5.63
2022-09-11T17:52:03.787Z,7.53
2022-09-11T17:54:31.011Z,5.35
2022-09-11T17:57:01.043Z,5.50
2022-09-11T17:59:28.359Z,5.38
2022-09-11T18:01:55.742Z,6.05
2022-09-11T18:04:23.153Z,6.90
2022-09-11T18:06:51.246Z,6.65
2022-09-11T18:09:19.904Z,7.97
2022-09-11T18:11:51.165Z,5.65
2022-09-11T18:14:19.518Z,6.57
2022-09-11T18:16:47.888Z,5.50
2022-09-11T18:19:17.853Z,6.40
2022-09-11T18:21:49.773Z,7.82
2022-09-11T18:24:20.520Z,5.78
2022-09-11T18:26:50.751Z,6.45
2022-09-11T18:29:20.495Z,8.30
2022-09-11T18:31:53.368Z,6.07
2022-09-11T18:34:23.640Z,6.28
2022-09-11T18:36:51.385Z,6.90
2022-09-11T18:39:20.933Z,6.90
2022-09-11T18:41:50.052Z,7.85
2022-09-11T18:44:20.125Z,7.00
2022-09-11T18:46:48.830Z,6.68
2022-09-11T18:49:16.626Z,7.38
2022-09-11T18:51:44.237Z,8.63
2022-09-11T18:54:17.657Z,7.00
2022-09-11T18:56:45.430Z,6.95
2022-09-11T18:59:13.276Z,7.32
2022-09-11T19:01:41.247Z,8.77
2022-09-11T19:04:10.438Z,6.90
2022-09-11T19:06:38.746Z,7.40
2022-09-11T19:09:10.052Z,8.07
2022-09-11T19:11:37.515Z,8.02
2022-09-11T19:14:08.760Z,7.53
2022-09-11T19:16:36.839Z,7.75
2022-09-11T19:19:05.746Z,8.05
2022-09-11T19:21:34.108Z,8.77
2022-09-11T19:24:02.573Z,7.90
2022-09-11T19:26:35.591Z,9.13
2022-09-11T19:29:03.184Z,8.45
2022-09-11T19:34:12.987Z,8.10
2022-09-11T19:36:41.150Z,9.57
2022-09-11T19:39:09.860Z,8.40
2022-09-11T19:41:38.757Z,9.10
2022-09-11T19:44:08.240Z,9.02
2022-09-11T19:46:38.049Z,8.63
2022-09-11T19:49:06.556Z,9.23
2022-09-11T19:51:40.996Z,7.97
2022-09-11T19:54:10.454Z,9.55
2022-09-11T19:56:38.439Z,8.77
2022-09-11T19:59:07.283Z,10.23
2022-09-11T20:01:34.998Z,10.23
2022-09-11T20:04:02.495Z,9.60
2022-09-11T20:06:32.798Z,11.23
2022-09-11T20:09:29.288Z,11.07
2022-09-11T20:11:48.023Z,9.55
2022-09-11T20:14:15.562Z,9.65
2022-09-11T20:16:42.850Z,10.18
2022-09-11T20:19:10.567Z,10.30
2022-09-11T20:21:38.358Z,10.18
2022-09-11T20:24:09.266Z,10.20
2022-09-11T20:26:37.043Z,10.70
2022-09-11T20:29:07.493Z,9.57
2022-09-11T20:31:46.430Z,10.52
2022-09-11T20:34:18.856Z,10.55
2022-09-11T20:36:47.068Z,11.40
2022-09-11T20:39:15.320Z,11.25
2022-09-11T20:41:45.826Z,14.93
2022-09-11T20:44:13.195Z,11.50
2022-09-11T20:46:40.725Z,11.07
2022-09-11T20:49:08.149Z,16.05
2022-09-11T20:51:35.462Z,11.25
2022-09-11T20:54:05.578Z,11.85
2022-09-11T20:56:33.066Z,11.77
2022-09-11T20:59:01.194Z,13.18
2022-09-11T21:01:33.415Z,12.25
2022-09-11T21:04:05.069Z,10.60
2022-09-11T21:06:34.334Z,10.75
2022-09-11T21:09:07.904Z,11.93
2022-09-11T21:11:38.231Z,12.88
2022-09-11T21:14:06.141Z,12.85
2022-09-11T21:16:34.209Z,11.93
2022-09-11T21:19:02.563Z,12.00
2022-09-11T21:21:31.036Z,12.07
2022-09-11T21:24:01.434Z,11.32
2022-09-11T21:26:29.652Z,11.90
2022-09-11T21:28:58.281Z,11.27
2022-09-11T21:31:25.952Z,12.07
2022-09-11T21:33:53.463Z,11.23
2022-09-11T21:36:20.746Z,12.30
2022-09-11T21:38:48.054Z,13.52
2022-09-11T21:41:15.457Z,14.85
2022-09-11T21:43:42.912Z,12.38
2022-09-11T21:46:10.483Z,12.55
2022-09-11T21:48:40.292Z,13.13
2022-09-11T21:51:14.852Z,13.10
2022-09-11T21:53:44.530Z,12.02
2022-09-11T21:56:19.780Z,12.82
2022-09-11T21:58:48.712Z,14.18
2022-09-11T22:01:15.993Z,14.32
2022-09-11T22:03:43.793Z,17.13
2022-09-11T22:06:11.953Z,22.65
2022-09-11T22:08:41.341Z,14.85
2022-09-11T22:11:09.151Z,15.70
2022-09-11T22:13:39.389Z,15.50
2022-09-11T22:16:09.628Z,15.63
2022-09-11T22:18:41.542Z,17.95
2022-09-11T22:21:10.301Z,17.30
2022-09-11T22:23:38.007Z,15.95
2022-09-11T22:26:15.012Z,15.75
2022-09-11T22:28:43.749Z,16.30
2022-09-11T22:31:17.647Z,18.83
2022-09-11T22:33:45.146Z,17.00
2022-09-11T22:36:19.719Z,16.98
2022-09-11T22:38:48.528Z,16.92
2022-09-11T22:41:16.568Z,17.00
2022-09-11T22:43:44.375Z,17.00
2022-09-11T22:46:12.485Z,17.10
2022-09-11T22:48:40.018Z,16.95
2022-09-11T22:51:07.595Z,15.90
2022-09-11T22:53:35.147Z,15.63
2022-09-11T22:56:02.616Z,16.60
2022-09-11T22:58:30.704Z,16.10
2022-09-11T23:01:00.545Z,18.75
2022-09-11T23:03:27.891Z,20.30
2022-09-11T23:06:15.827Z,20.35
2022-09-11T23:08:43.301Z,21.58
2022-09-11T23:11:11.393Z,19.17
2022-09-11T23:13:38.747Z,17.77
2022-09-11T23:16:17.756Z,16.40
2022-09-11T23:18:45.933Z,15.85
2022-09-11T23:21:14.429Z,14.65
2022-09-11T23:23:44.364Z,15.93
2022-09-11T23:26:13.469Z,17.25
2022-09-11T23:28:41.351Z,21.58
2022-09-11T23:31:17.652Z,19.45
2022-09-11T23:33:45.286Z,17.60
2022-09-11T23:36:14.268Z,19.30
2022-09-11T23:38:44.820Z,16.75
2022-09-11T23:41:12.467Z,17.83
2022-09-11T23:43:39.757Z,18.50
2022-09-11T23:46:07.828Z,16.08
2022-09-11T23:48:35.205Z,16.35
2022-09-11T23:51:02.780Z,15.90
2022-09-11T23:53:30.603Z,16.50
2022-09-11T23:55:58.691Z,17.90
2022-09-11T23:58:26.380Z,15.55
